Overview Statistics Trail Chart Weather Telemetry Raw packets
 

This is the latest recevied telemetry packets stored in our database for station/object OE3BCB-10. If no packets are shown the sender has not sent any telemetry packets the latest 10 day(s).

Telemetry packets is used to share measurements like repeteater parameters, battery voltage, radiation readings (or any other measurements).

<< 1 2 3 4 >>
Time Press* Temp.in* Hum* QNH* Temp.out*
1788458968 992.2 hPa 27.6 C deg 49.9 % 1025.4 hPa 26.2 C deg
1788458638 992 hPa 27.6 C deg 49.9 % 1025.2 hPa 26.3 C deg
1788458308 992 hPa 27.6 C deg 49.9 % 1025.1 hPa 26.3 C deg
1788457978 991.9 hPa 27.6 C deg 49.9 % 1025.1 hPa 26.4 C deg
1788457648 991.8 hPa 27.6 C deg 49.9 % 1025 hPa 26.3 C deg
1788457318 991.8 hPa 27.6 C deg 49.9 % 1025 hPa 26.4 C deg
1788456988 991.8 hPa 27.6 C deg 49.9 % 1025 hPa 26.4 C deg
1788456658 991.8 hPa 27.6 C deg 49.9 % 1025 hPa 26.4 C deg
1788456327 991.8 hPa 27.6 C deg 49.9 % 1025 hPa 26.2 C deg
1788455997 991.7 hPa 27.6 C deg 49.9 % 1024.9 hPa 26.2 C deg
1788455667 991.7 hPa 27.6 C deg 49.9 % 1024.9 hPa 26.2 C deg
1788455337 991.7 hPa 27.7 C deg 49.9 % 1024.9 hPa 26.2 C deg
1788455007 991.8 hPa 27.7 C deg 50 % 1025 hPa 26.2 C deg
1788454677 991.8 hPa 27.7 C deg 50 % 1024.9 hPa 26.2 C deg
1788454347 991.7 hPa 27.7 C deg 50 % 1024.9 hPa 26.4 C deg
1788454017 991.8 hPa 27.7 C deg 50 % 1024.9 hPa 26.4 C deg
1788453687 991.7 hPa 27.7 C deg 50 % 1024.8 hPa 26.4 C deg
1788453357 991.7 hPa 27.7 C deg 50 % 1024.9 hPa 26.5 C deg
1788453027 991.7 hPa 27.8 C deg 50.1 % 1024.9 hPa 26.5 C deg
1788452697 991.6 hPa 27.8 C deg 50.1 % 1024.8 hPa 26.6 C deg
1788452367 991.6 hPa 27.8 C deg 50.1 % 1024.8 hPa 26.6 C deg
1788452036 991.5 hPa 27.7 C deg 50.1 % 1024.7 hPa 26.6 C deg
1788451706 991.7 hPa 27.8 C deg 50.1 % 1024.8 hPa 26.6 C deg
1788451376 991.6 hPa 27.8 C deg 50.1 % 1024.8 hPa 26.7 C deg
1788451046 991.6 hPa 27.8 C deg 50.1 % 1024.7 hPa 26.6 C deg
*Used Equation Coefficients:
Press: 0, 1, 0
Temp.in: 0, 1, 0
Hum: 0, 1, 0
QNH: 0, 1, 0
Temp.out: 0, 1, 0

  • The parameter names for the analog channels will be Value1, Value2, Value3 (up to Value5) if station has not sent a PARAM-packet that specifies the parameter names for each analog channel.
  • Each analog value is a decimal number between 000 and 255 (according to APRS specifications). The receiver use the telemetry equation coefficientsto to restore the original sensor values. If no EQNS-packet with equation coefficients is sent we will show the values as is (this corresponds to the equation coefficients a=0, b=1 and c=0).
    The sent equation coefficients is used in the equation: a * value2 + b * value + c.
  • The units for the analog values will not be shown if station has not sent a UNIT-packet specifying what unit's to use.
  • The parameter names for the digital bits will be Bit1, Bit2, Bit3 (up to Bit8) if station has not sent a PARAM-packet that specifies the parameter names for each digital bit.
  • All bit labels will be named "On" if station has not sent a UNIT-packet that specifies the label of each bit.
  • A bit is considered to be On when the bit is 1 if station has not sent a BITS-packet that specifies another "Bit sense" (a BITS-packet specify the state of the bits that match the BIT labels)